sensor_id;sensor_type;location;lat;lon;timestamp;P1;durP1;ratioP1;P2;durP2;ratioP2
17404;SDS011;8820;54.604;18.226;2024-03-06T00:02:12;45.40;;;29.13;;
17404;SDS011;8820;54.604;18.226;2024-03-06T00:04:40;45.00;;;29.67;;
17404;SDS011;8820;54.604;18.226;2024-03-06T00:07:08;42.67;;;29.10;;
17404;SDS011;8820;54.604;18.226;2024-03-06T00:09:36;42.10;;;30.57;;
17404;SDS011;8820;54.604;18.226;2024-03-06T00:12:04;43.93;;;28.97;;
17404;SDS011;8820;54.604;18.226;2024-03-06T00:14:34;45.90;;;31.20;;
17404;SDS011;8820;54.604;18.226;2024-03-06T00:17:03;44.63;;;30.63;;
17404;SDS011;8820;54.604;18.226;2024-03-06T00:19:33;48.07;;;30.77;;
17404;SDS011;8820;54.604;18.226;2024-03-06T00:22:01;44.60;;;28.50;;
17404;SDS011;8820;54.604;18.226;2024-03-06T00:24:30;42.73;;;29.33;;
17404;SDS011;8820;54.604;18.226;2024-03-06T00:26:58;45.63;;;30.37;;
17404;SDS011;8820;54.604;18.226;2024-03-06T00:29:28;45.77;;;30.47;;
17404;SDS011;8820;54.604;18.226;2024-03-06T00:31:59;44.50;;;31.10;;
17404;SDS011;8820;54.604;18.226;2024-03-06T00:34:27;47.30;;;31.10;;
17404;SDS011;8820;54.604;18.226;2024-03-06T00:36:56;45.47;;;29.63;;
17404;SDS011;8820;54.604;18.226;2024-03-06T00:39:24;37.07;;;27.40;;
17404;SDS011;8820;54.604;18.226;2024-03-06T00:41:52;45.07;;;29.07;;
17404;SDS011;8820;54.604;18.226;2024-03-06T00:44:21;43.87;;;29.43;;
17404;SDS011;8820;54.604;18.226;2024-03-06T00:46:49;46.43;;;30.90;;
17404;SDS011;8820;54.604;18.226;2024-03-06T00:49:18;44.03;;;30.10;;
17404;SDS011;8820;54.604;18.226;2024-03-06T00:51:46;45.53;;;27.97;;
17404;SDS011;8820;54.604;18.226;2024-03-06T00:54:15;42.13;;;26.37;;
17404;SDS011;8820;54.604;18.226;2024-03-06T00:56:43;39.30;;;27.50;;
17404;SDS011;8820;54.604;18.226;2024-03-06T00:59:12;39.97;;;26.87;;
17404;SDS011;8820;54.604;18.226;2024-03-06T01:01:40;40.43;;;25.37;;
17404;SDS011;8820;54.604;18.226;2024-03-06T01:04:08;39.07;;;26.73;;
17404;SDS011;8820;54.604;18.226;2024-03-06T01:06:38;38.57;;;24.93;;
17404;SDS011;8820;54.604;18.226;2024-03-06T01:09:09;39.13;;;26.23;;
17404;SDS011;8820;54.604;18.226;2024-03-06T01:11:37;41.17;;;26.20;;
17404;SDS011;8820;54.604;18.226;2024-03-06T01:14:06;37.53;;;24.00;;
17404;SDS011;8820;54.604;18.226;2024-03-06T01:16:34;39.03;;;24.23;;
17404;SDS011;8820;54.604;18.226;2024-03-06T01:19:02;37.40;;;24.20;;
17404;SDS011;8820;54.604;18.226;2024-03-06T01:21:30;33.27;;;23.00;;
17404;SDS011;8820;54.604;18.226;2024-03-06T01:24:02;29.57;;;21.67;;
17404;SDS011;8820;54.604;18.226;2024-03-06T01:26:30;31.57;;;21.53;;
17404;SDS011;8820;54.604;18.226;2024-03-06T01:28:58;35.93;;;21.17;;
17404;SDS011;8820;54.604;18.226;2024-03-06T01:31:26;29.00;;;19.37;;
17404;SDS011;8820;54.604;18.226;2024-03-06T01:33:55;27.17;;;18.20;;
17404;SDS011;8820;54.604;18.226;2024-03-06T01:36:23;26.63;;;16.07;;
17404;SDS011;8820;54.604;18.226;2024-03-06T01:38:51;24.17;;;15.50;;
17404;SDS011;8820;54.604;18.226;2024-03-06T01:41:20;21.87;;;15.70;;
17404;SDS011;8820;54.604;18.226;2024-03-06T01:43:48;24.43;;;16.07;;
17404;SDS011;8820;54.604;18.226;2024-03-06T01:46:17;23.17;;;15.43;;
17404;SDS011;8820;54.604;18.226;2024-03-06T01:48:45;29.20;;;17.67;;
17404;SDS011;8820;54.604;18.226;2024-03-06T01:51:13;26.67;;;16.60;;
17404;SDS011;8820;54.604;18.226;2024-03-06T01:53:41;25.90;;;16.57;;
17404;SDS011;8820;54.604;18.226;2024-03-06T01:56:09;25.83;;;18.57;;
17404;SDS011;8820;54.604;18.226;2024-03-06T01:58:45;24.03;;;17.50;;
17404;SDS011;8820;54.604;18.226;2024-03-06T02:01:14;25.97;;;16.47;;
17404;SDS011;8820;54.604;18.226;2024-03-06T02:03:43;24.50;;;15.70;;
17404;SDS011;8820;54.604;18.226;2024-03-06T02:06:12;26.23;;;17.57;;
17404;SDS011;8820;54.604;18.226;2024-03-06T02:08:45;25.40;;;16.40;;
17404;SDS011;8820;54.604;18.226;2024-03-06T02:11:14;23.07;;;15.13;;
17404;SDS011;8820;54.604;18.226;2024-03-06T02:13:43;21.97;;;15.03;;
17404;SDS011;8820;54.604;18.226;2024-03-06T02:16:13;19.10;;;13.77;;
17404;SDS011;8820;54.604;18.226;2024-03-06T02:18:50;17.60;;;14.03;;
17404;SDS011;8820;54.604;18.226;2024-03-06T02:21:21;21.77;;;14.60;;
17404;SDS011;8820;54.604;18.226;2024-03-06T02:23:50;17.07;;;13.40;;
17404;SDS011;8820;54.604;18.226;2024-03-06T02:26:18;16.40;;;12.17;;
17404;SDS011;8820;54.604;18.226;2024-03-06T02:28:47;19.63;;;13.10;;
17404;SDS011;8820;54.604;18.226;2024-03-06T02:31:16;18.27;;;13.17;;
17404;SDS011;8820;54.604;18.226;2024-03-06T02:33:46;17.37;;;13.70;;
17404;SDS011;8820;54.604;18.226;2024-03-06T02:36:15;20.53;;;13.60;;
17404;SDS011;8820;54.604;18.226;2024-03-06T02:38:45;15.47;;;12.20;;
17404;SDS011;8820;54.604;18.226;2024-03-06T02:41:13;19.73;;;13.10;;
17404;SDS011;8820;54.604;18.226;2024-03-06T02:43:42;17.53;;;12.73;;
17404;SDS011;8820;54.604;18.226;2024-03-06T02:46:10;13.67;;;11.83;;
17404;SDS011;8820;54.604;18.226;2024-03-06T02:48:38;16.90;;;12.93;;
17404;SDS011;8820;54.604;18.226;2024-03-06T02:51:06;19.97;;;13.10;;
17404;SDS011;8820;54.604;18.226;2024-03-06T02:53:35;16.63;;;12.63;;
17404;SDS011;8820;54.604;18.226;2024-03-06T02:56:05;20.80;;;13.10;;
17404;SDS011;8820;54.604;18.226;2024-03-06T02:58:34;17.80;;;13.37;;
17404;SDS011;8820;54.604;18.226;2024-03-06T03:01:03;16.50;;;12.13;;
17404;SDS011;8820;54.604;18.226;2024-03-06T03:03:31;17.80;;;12.53;;
17404;SDS011;8820;54.604;18.226;2024-03-06T03:05:59;14.07;;;12.10;;
17404;SDS011;8820;54.604;18.226;2024-03-06T03:08:27;15.03;;;11.67;;
17404;SDS011;8820;54.604;18.226;2024-03-06T03:10:55;15.30;;;11.77;;
17404;SDS011;8820;54.604;18.226;2024-03-06T03:13:25;18.70;;;13.17;;
17404;SDS011;8820;54.604;18.226;2024-03-06T03:15:53;19.37;;;12.60;;
17404;SDS011;8820;54.604;18.226;2024-03-06T03:18:21;16.00;;;11.47;;
17404;SDS011;8820;54.604;18.226;2024-03-06T03:20:50;17.33;;;13.13;;
17404;SDS011;8820;54.604;18.226;2024-03-06T03:23:18;17.67;;;12.60;;
17404;SDS011;8820;54.604;18.226;2024-03-06T03:25:48;16.13;;;12.07;;
17404;SDS011;8820;54.604;18.226;2024-03-06T03:28:16;19.70;;;11.57;;
17404;SDS011;8820;54.604;18.226;2024-03-06T03:30:46;17.87;;;12.70;;
17404;SDS011;8820;54.604;18.226;2024-03-06T03:33:14;18.27;;;12.60;;
17404;SDS011;8820;54.604;18.226;2024-03-06T03:35:43;20.13;;;13.00;;
17404;SDS011;8820;54.604;18.226;2024-03-06T03:38:11;16.73;;;12.40;;
17404;SDS011;8820;54.604;18.226;2024-03-06T03:40:39;15.47;;;11.07;;
17404;SDS011;8820;54.604;18.226;2024-03-06T03:43:07;18.83;;;12.40;;
17404;SDS011;8820;54.604;18.226;2024-03-06T03:45:35;15.53;;;12.07;;
17404;SDS011;8820;54.604;18.226;2024-03-06T03:48:05;19.20;;;12.13;;
17404;SDS011;8820;54.604;18.226;2024-03-06T03:50:34;15.03;;;11.47;;
17404;SDS011;8820;54.604;18.226;2024-03-06T03:53:02;19.07;;;11.20;;
17404;SDS011;8820;54.604;18.226;2024-03-06T03:55:30;15.50;;;11.83;;
17404;SDS011;8820;54.604;18.226;2024-03-06T03:57:58;17.47;;;11.67;;
17404;SDS011;8820;54.604;18.226;2024-03-06T04:00:26;15.43;;;11.60;;
17404;SDS011;8820;54.604;18.226;2024-03-06T04:02:54;15.20;;;11.63;;
17404;SDS011;8820;54.604;18.226;2024-03-06T04:05:25;15.23;;;10.77;;
17404;SDS011;8820;54.604;18.226;2024-03-06T04:07:53;15.30;;;11.30;;
17404;SDS011;8820;54.604;18.226;2024-03-06T04:10:22;16.67;;;11.60;;
17404;SDS011;8820;54.604;18.226;2024-03-06T04:12:50;16.93;;;11.50;;
17404;SDS011;8820;54.604;18.226;2024-03-06T04:15:18;16.80;;;11.60;;
17404;SDS011;8820;54.604;18.226;2024-03-06T04:17:46;14.87;;;10.93;;
17404;SDS011;8820;54.604;18.226;2024-03-06T04:20:14;23.57;;;12.30;;
17404;SDS011;8820;54.604;18.226;2024-03-06T04:22:44;16.40;;;11.43;;
17404;SDS011;8820;54.604;18.226;2024-03-06T04:25:12;18.70;;;11.80;;
17404;SDS011;8820;54.604;18.226;2024-03-06T04:27:40;19.47;;;11.83;;
17404;SDS011;8820;54.604;18.226;2024-03-06T04:30:09;18.70;;;11.97;;
17404;SDS011;8820;54.604;18.226;2024-03-06T04:32:38;15.57;;;11.27;;
17404;SDS011;8820;54.604;18.226;2024-03-06T04:35:06;17.73;;;11.57;;
17404;SDS011;8820;54.604;18.226;2024-03-06T04:37:36;16.23;;;11.30;;
17404;SDS011;8820;54.604;18.226;2024-03-06T04:40:07;17.07;;;11.23;;
17404;SDS011;8820;54.604;18.226;2024-03-06T04:42:36;17.67;;;11.80;;
17404;SDS011;8820;54.604;18.226;2024-03-06T04:45:08;17.40;;;11.27;;
17404;SDS011;8820;54.604;18.226;2024-03-06T04:47:38;17.63;;;12.30;;
17404;SDS011;8820;54.604;18.226;2024-03-06T04:50:08;18.40;;;11.73;;
17404;SDS011;8820;54.604;18.226;2024-03-06T04:52:36;14.50;;;10.20;;
17404;SDS011;8820;54.604;18.226;2024-03-06T04:55:07;16.13;;;11.00;;
17404;SDS011;8820;54.604;18.226;2024-03-06T04:57:38;16.23;;;11.60;;
17404;SDS011;8820;54.604;18.226;2024-03-06T05:00:07;15.67;;;11.87;;
17404;SDS011;8820;54.604;18.226;2024-03-06T05:02:36;21.57;;;12.97;;
17404;SDS011;8820;54.604;18.226;2024-03-06T05:05:22;17.83;;;12.70;;
17404;SDS011;8820;54.604;18.226;2024-03-06T05:08:09;16.97;;;12.23;;
17404;SDS011;8820;54.604;18.226;2024-03-06T05:10:57;17.63;;;11.50;;
17404;SDS011;8820;54.604;18.226;2024-03-06T05:13:45;16.03;;;11.47;;
17404;SDS011;8820;54.604;18.226;2024-03-06T05:16:30;17.23;;;11.40;;
17404;SDS011;8820;54.604;18.226;2024-03-06T05:19:16;17.67;;;12.40;;
17404;SDS011;8820;54.604;18.226;2024-03-06T05:22:01;15.27;;;11.67;;
17404;SDS011;8820;54.604;18.226;2024-03-06T05:24:47;17.33;;;11.67;;
17404;SDS011;8820;54.604;18.226;2024-03-06T05:27:33;18.33;;;13.37;;
17404;SDS011;8820;54.604;18.226;2024-03-06T05:30:19;21.13;;;13.10;;
17404;SDS011;8820;54.604;18.226;2024-03-06T05:33:05;22.13;;;14.40;;
17404;SDS011;8820;54.604;18.226;2024-03-06T05:35:50;18.60;;;13.20;;
17404;SDS011;8820;54.604;18.226;2024-03-06T05:38:36;16.63;;;12.73;;
17404;SDS011;8820;54.604;18.226;2024-03-06T05:41:21;19.50;;;12.20;;
17404;SDS011;8820;54.604;18.226;2024-03-06T05:44:08;19.37;;;12.27;;
17404;SDS011;8820;54.604;18.226;2024-03-06T05:46:54;17.30;;;11.00;;
17404;SDS011;8820;54.604;18.226;2024-03-06T05:49:39;19.73;;;11.17;;
17404;SDS011;8820;54.604;18.226;2024-03-06T05:52:25;19.57;;;12.93;;
17404;SDS011;8820;54.604;18.226;2024-03-06T05:55:11;19.43;;;12.03;;
17404;SDS011;8820;54.604;18.226;2024-03-06T05:57:56;13.43;;;11.43;;
17404;SDS011;8820;54.604;18.226;2024-03-06T06:00:37;18.10;;;12.10;;
17404;SDS011;8820;54.604;18.226;2024-03-06T06:03:06;18.40;;;13.23;;
17404;SDS011;8820;54.604;18.226;2024-03-06T06:05:34;18.13;;;12.37;;
17404;SDS011;8820;54.604;18.226;2024-03-06T06:08:04;19.00;;;13.40;;
17404;SDS011;8820;54.604;18.226;2024-03-06T06:10:32;22.23;;;14.03;;
17404;SDS011;8820;54.604;18.226;2024-03-06T06:13:01;16.00;;;11.37;;
17404;SDS011;8820;54.604;18.226;2024-03-06T06:15:31;15.87;;;11.60;;
17404;SDS011;8820;54.604;18.226;2024-03-06T06:18:00;20.23;;;13.07;;
17404;SDS011;8820;54.604;18.226;2024-03-06T06:20:29;18.53;;;12.83;;
17404;SDS011;8820;54.604;18.226;2024-03-06T06:22:57;17.50;;;12.37;;
17404;SDS011;8820;54.604;18.226;2024-03-06T06:25:25;17.57;;;11.83;;
17404;SDS011;8820;54.604;18.226;2024-03-06T06:27:53;17.70;;;11.60;;
17404;SDS011;8820;54.604;18.226;2024-03-06T06:30:22;17.70;;;10.97;;
17404;SDS011;8820;54.604;18.226;2024-03-06T06:32:50;18.83;;;11.70;;
17404;SDS011;8820;54.604;18.226;2024-03-06T06:35:19;17.23;;;11.33;;
17404;SDS011;8820;54.604;18.226;2024-03-06T06:37:48;18.90;;;10.83;;
17404;SDS011;8820;54.604;18.226;2024-03-06T06:40:16;17.00;;;10.93;;
17404;SDS011;8820;54.604;18.226;2024-03-06T06:42:47;24.57;;;15.97;;
17404;SDS011;8820;54.604;18.226;2024-03-06T06:45:17;19.90;;;12.43;;
17404;SDS011;8820;54.604;18.226;2024-03-06T06:47:46;15.30;;;11.10;;
17404;SDS011;8820;54.604;18.226;2024-03-06T06:50:15;16.10;;;11.63;;
17404;SDS011;8820;54.604;18.226;2024-03-06T06:52:45;19.67;;;12.70;;
17404;SDS011;8820;54.604;18.226;2024-03-06T06:55:13;14.60;;;11.67;;
17404;SDS011;8820;54.604;18.226;2024-03-06T06:57:42;16.60;;;10.53;;
17404;SDS011;8820;54.604;18.226;2024-03-06T07:00:10;19.00;;;12.00;;
17404;SDS011;8820;54.604;18.226;2024-03-06T07:02:39;15.77;;;11.43;;
17404;SDS011;8820;54.604;18.226;2024-03-06T07:05:09;15.77;;;11.20;;
17404;SDS011;8820;54.604;18.226;2024-03-06T07:07:38;15.00;;;11.60;;
17404;SDS011;8820;54.604;18.226;2024-03-06T07:10:08;16.93;;;13.37;;
17404;SDS011;8820;54.604;18.226;2024-03-06T07:12:37;13.80;;;10.50;;
17404;SDS011;8820;54.604;18.226;2024-03-06T07:15:06;12.63;;;9.37;;
17404;SDS011;8820;54.604;18.226;2024-03-06T07:17:34;12.67;;;9.93;;
17404;SDS011;8820;54.604;18.226;2024-03-06T07:20:03;17.00;;;10.33;;
17404;SDS011;8820;54.604;18.226;2024-03-06T07:22:32;13.23;;;10.30;;
17404;SDS011;8820;54.604;18.226;2024-03-06T07:25:01;16.97;;;11.23;;
17404;SDS011;8820;54.604;18.226;2024-03-06T07:27:30;27.27;;;16.77;;
17404;SDS011;8820;54.604;18.226;2024-03-06T07:29:59;17.63;;;12.27;;
17404;SDS011;8820;54.604;18.226;2024-03-06T07:32:27;19.47;;;12.20;;
17404;SDS011;8820;54.604;18.226;2024-03-06T07:34:55;16.73;;;10.70;;
17404;SDS011;8820;54.604;18.226;2024-03-06T07:37:25;13.20;;;10.73;;
17404;SDS011;8820;54.604;18.226;2024-03-06T07:39:53;25.70;;;17.07;;
17404;SDS011;8820;54.604;18.226;2024-03-06T07:42:21;18.87;;;12.60;;
17404;SDS011;8820;54.604;18.226;2024-03-06T07:44:50;12.70;;;9.43;;
17404;SDS011;8820;54.604;18.226;2024-03-06T07:47:19;15.63;;;9.93;;
17404;SDS011;8820;54.604;18.226;2024-03-06T07:49:47;17.33;;;10.80;;
17404;SDS011;8820;54.604;18.226;2024-03-06T07:52:16;12.80;;;9.33;;
17404;SDS011;8820;54.604;18.226;2024-03-06T07:54:45;13.17;;;10.87;;
17404;SDS011;8820;54.604;18.226;2024-03-06T07:57:13;20.57;;;12.43;;
17404;SDS011;8820;54.604;18.226;2024-03-06T07:59:41;15.13;;;9.93;;
17404;SDS011;8820;54.604;18.226;2024-03-06T08:02:11;12.37;;;9.67;;
17404;SDS011;8820;54.604;18.226;2024-03-06T08:04:39;25.43;;;17.13;;
17404;SDS011;8820;54.604;18.226;2024-03-06T08:07:07;22.20;;;15.23;;
17404;SDS011;8820;54.604;18.226;2024-03-06T08:09:35;26.00;;;17.73;;
17404;SDS011;8820;54.604;18.226;2024-03-06T08:12:03;34.03;;;23.07;;
17404;SDS011;8820;54.604;18.226;2024-03-06T08:14:32;20.17;;;14.70;;
17404;SDS011;8820;54.604;18.226;2024-03-06T08:17:00;30.17;;;22.57;;
17404;SDS011;8820;54.604;18.226;2024-03-06T08:19:30;16.97;;;14.57;;
17404;SDS011;8820;54.604;18.226;2024-03-06T08:21:58;15.90;;;11.43;;
17404;SDS011;8820;54.604;18.226;2024-03-06T08:24:31;14.70;;;10.33;;
17404;SDS011;8820;54.604;18.226;2024-03-06T08:26:59;17.90;;;13.37;;
17404;SDS011;8820;54.604;18.226;2024-03-06T08:29:28;18.63;;;11.60;;
17404;SDS011;8820;54.604;18.226;2024-03-06T08:31:56;18.83;;;12.30;;
17404;SDS011;8820;54.604;18.226;2024-03-06T08:34:26;15.67;;;10.20;;
17404;SDS011;8820;54.604;18.226;2024-03-06T08:36:56;13.63;;;9.57;;
17404;SDS011;8820;54.604;18.226;2024-03-06T08:39:24;18.93;;;13.50;;
17404;SDS011;8820;54.604;18.226;2024-03-06T08:41:52;15.53;;;10.37;;
17404;SDS011;8820;54.604;18.226;2024-03-06T08:44:20;16.53;;;10.13;;
17404;SDS011;8820;54.604;18.226;2024-03-06T08:46:48;17.10;;;9.07;;
17404;SDS011;8820;54.604;18.226;2024-03-06T08:49:16;14.13;;;9.70;;
17404;SDS011;8820;54.604;18.226;2024-03-06T08:51:44;13.60;;;9.80;;
17404;SDS011;8820;54.604;18.226;2024-03-06T08:54:14;12.43;;;9.67;;
17404;SDS011;8820;54.604;18.226;2024-03-06T08:56:42;15.57;;;11.63;;
17404;SDS011;8820;54.604;18.226;2024-03-06T08:59:11;14.67;;;10.30;;
17404;SDS011;8820;54.604;18.226;2024-03-06T09:01:39;13.40;;;8.47;;
17404;SDS011;8820;54.604;18.226;2024-03-06T09:04:08;20.87;;;14.37;;
17404;SDS011;8820;54.604;18.226;2024-03-06T09:06:36;10.00;;;8.70;;
17404;SDS011;8820;54.604;18.226;2024-03-06T09:09:04;10.77;;;9.30;;
17404;SDS011;8820;54.604;18.226;2024-03-06T09:11:34;11.17;;;8.63;;
17404;SDS011;8820;54.604;18.226;2024-03-06T09:14:02;11.13;;;8.90;;
17404;SDS011;8820;54.604;18.226;2024-03-06T09:16:31;17.70;;;10.27;;
17404;SDS011;8820;54.604;18.226;2024-03-06T09:18:59;14.10;;;9.30;;
17404;SDS011;8820;54.604;18.226;2024-03-06T09:21:27;15.87;;;11.40;;
17404;SDS011;8820;54.604;18.226;2024-03-06T09:23:55;15.93;;;11.17;;
17404;SDS011;8820;54.604;18.226;2024-03-06T09:26:24;13.83;;;9.33;;
17404;SDS011;8820;54.604;18.226;2024-03-06T09:28:53;13.40;;;10.30;;
17404;SDS011;8820;54.604;18.226;2024-03-06T09:31:21;14.13;;;10.30;;
17404;SDS011;8820;54.604;18.226;2024-03-06T09:33:49;16.03;;;10.63;;
17404;SDS011;8820;54.604;18.226;2024-03-06T09:36:17;17.13;;;12.40;;
17404;SDS011;8820;54.604;18.226;2024-03-06T09:38:46;13.93;;;10.77;;
17404;SDS011;8820;54.604;18.226;2024-03-06T09:41:14;14.50;;;9.60;;
17404;SDS011;8820;54.604;18.226;2024-03-06T09:43:43;14.57;;;10.50;;
17404;SDS011;8820;54.604;18.226;2024-03-06T09:46:13;11.23;;;9.27;;
17404;SDS011;8820;54.604;18.226;2024-03-06T09:48:43;17.43;;;11.97;;
17404;SDS011;8820;54.604;18.226;2024-03-06T09:51:14;17.07;;;12.27;;
17404;SDS011;8820;54.604;18.226;2024-03-06T09:53:42;21.13;;;10.80;;
17404;SDS011;8820;54.604;18.226;2024-03-06T09:56:10;15.17;;;9.53;;
17404;SDS011;8820;54.604;18.226;2024-03-06T09:58:39;13.83;;;10.07;;
17404;SDS011;8820;54.604;18.226;2024-03-06T10:01:08;13.03;;;9.90;;
17404;SDS011;8820;54.604;18.226;2024-03-06T10:03:40;12.80;;;9.07;;
17404;SDS011;8820;54.604;18.226;2024-03-06T10:06:08;11.93;;;9.10;;
17404;SDS011;8820;54.604;18.226;2024-03-06T10:08:41;12.53;;;8.87;;
17404;SDS011;8820;54.604;18.226;2024-03-06T10:11:10;12.97;;;9.70;;
17404;SDS011;8820;54.604;18.226;2024-03-06T10:13:39;11.20;;;8.93;;
17404;SDS011;8820;54.604;18.226;2024-03-06T10:16:07;19.77;;;12.27;;
17404;SDS011;8820;54.604;18.226;2024-03-06T10:18:37;13.97;;;10.70;;
17404;SDS011;8820;54.604;18.226;2024-03-06T10:21:07;14.13;;;9.93;;
17404;SDS011;8820;54.604;18.226;2024-03-06T10:23:36;11.20;;;9.37;;
17404;SDS011;8820;54.604;18.226;2024-03-06T10:26:06;15.47;;;9.67;;
17404;SDS011;8820;54.604;18.226;2024-03-06T10:28:35;13.32;;;9.75;;
17404;SDS011;8820;54.604;18.226;2024-03-06T10:31:05;11.00;;;9.65;;
17404;SDS011;8820;54.604;18.226;2024-03-06T10:33:34;12.18;;;10.07;;
17404;SDS011;8820;54.604;18.226;2024-03-06T10:36:05;12.50;;;9.82;;
17404;SDS011;8820;54.604;18.226;2024-03-06T10:38:38;13.45;;;11.57;;
17404;SDS011;8820;54.604;18.226;2024-03-06T10:41:11;14.43;;;9.93;;
17404;SDS011;8820;54.604;18.226;2024-03-06T10:43:43;9.80;;;8.50;;
17404;SDS011;8820;54.604;18.226;2024-03-06T10:46:15;11.57;;;9.07;;
17404;SDS011;8820;54.604;18.226;2024-03-06T10:48:47;10.60;;;8.77;;
17404;SDS011;8820;54.604;18.226;2024-03-06T10:51:21;14.02;;;8.52;;
17404;SDS011;8820;54.604;18.226;2024-03-06T10:53:50;10.27;;;8.95;;
17404;SDS011;8820;54.604;18.226;2024-03-06T10:56:19;12.70;;;8.90;;
17404;SDS011;8820;54.604;18.226;2024-03-06T10:58:49;9.50;;;8.20;;
17404;SDS011;8820;54.604;18.226;2024-03-06T11:01:18;10.25;;;8.52;;
17404;SDS011;8820;54.604;18.226;2024-03-06T11:03:47;12.65;;;9.15;;
17404;SDS011;8820;54.604;18.226;2024-03-06T11:06:16;13.45;;;10.70;;
17404;SDS011;8820;54.604;18.226;2024-03-06T11:08:46;9.55;;;8.55;;
17404;SDS011;8820;54.604;18.226;2024-03-06T11:11:18;11.88;;;8.98;;
17404;SDS011;8820;54.604;18.226;2024-03-06T11:13:47;12.15;;;8.20;;
17404;SDS011;8820;54.604;18.226;2024-03-06T11:16:16;14.00;;;9.10;;
17404;SDS011;8820;54.604;18.226;2024-03-06T11:18:44;11.13;;;8.38;;
17404;SDS011;8820;54.604;18.226;2024-03-06T11:21:30;11.20;;;9.27;;
17404;SDS011;8820;54.604;18.226;2024-03-06T11:24:19;13.65;;;10.45;;
17404;SDS011;8820;54.604;18.226;2024-03-06T11:26:49;13.80;;;9.57;;
17404;SDS011;8820;54.604;18.226;2024-03-06T11:29:22;12.15;;;10.15;;
17404;SDS011;8820;54.604;18.226;2024-03-06T11:32:03;14.18;;;10.30;;
17404;SDS011;8820;54.604;18.226;2024-03-06T11:34:36;9.80;;;8.80;;
17404;SDS011;8820;54.604;18.226;2024-03-06T11:37:05;12.05;;;8.35;;
17404;SDS011;8820;54.604;18.226;2024-03-06T11:39:38;10.50;;;9.23;;
17404;SDS011;8820;54.604;18.226;2024-03-06T11:42:07;12.43;;;9.48;;
17404;SDS011;8820;54.604;18.226;2024-03-06T11:44:36;10.25;;;9.15;;
17404;SDS011;8820;54.604;18.226;2024-03-06T11:47:05;10.90;;;9.40;;
17404;SDS011;8820;54.604;18.226;2024-03-06T11:49:35;12.70;;;9.30;;
17404;SDS011;8820;54.604;18.226;2024-03-06T11:52:05;9.57;;;8.57;;
17404;SDS011;8820;54.604;18.226;2024-03-06T11:54:34;10.00;;;8.27;;
17404;SDS011;8820;54.604;18.226;2024-03-06T11:57:05;13.48;;;8.85;;
17404;SDS011;8820;54.604;18.226;2024-03-06T11:59:33;11.63;;;8.68;;
17404;SDS011;8820;54.604;18.226;2024-03-06T12:02:03;16.92;;;9.25;;
17404;SDS011;8820;54.604;18.226;2024-03-06T12:04:33;11.30;;;10.10;;
17404;SDS011;8820;54.604;18.226;2024-03-06T12:07:03;10.95;;;8.68;;
17404;SDS011;8820;54.604;18.226;2024-03-06T12:09:34;11.60;;;9.48;;
17404;SDS011;8820;54.604;18.226;2024-03-06T12:12:07;11.05;;;9.10;;
17404;SDS011;8820;54.604;18.226;2024-03-06T12:14:37;13.63;;;9.00;;
17404;SDS011;8820;54.604;18.226;2024-03-06T12:17:06;14.27;;;10.67;;
17404;SDS011;8820;54.604;18.226;2024-03-06T12:19:39;15.23;;;8.90;;
17404;SDS011;8820;54.604;18.226;2024-03-06T12:22:10;10.73;;;8.37;;
17404;SDS011;8820;54.604;18.226;2024-03-06T12:24:39;18.30;;;10.77;;
17404;SDS011;8820;54.604;18.226;2024-03-06T12:27:08;12.77;;;9.50;;
17404;SDS011;8820;54.604;18.226;2024-03-06T12:29:39;11.90;;;9.33;;
17404;SDS011;8820;54.604;18.226;2024-03-06T12:32:15;10.93;;;8.87;;
17404;SDS011;8820;54.604;18.226;2024-03-06T12:34:55;11.33;;;9.10;;
17404;SDS011;8820;54.604;18.226;2024-03-06T12:37:28;10.50;;;8.27;;
17404;SDS011;8820;54.604;18.226;2024-03-06T12:40:01;13.30;;;8.93;;
17404;SDS011;8820;54.604;18.226;2024-03-06T12:42:32;10.95;;;8.38;;
17404;SDS011;8820;54.604;18.226;2024-03-06T12:45:00;10.05;;;7.72;;
17404;SDS011;8820;54.604;18.226;2024-03-06T12:47:29;10.32;;;8.40;;
17404;SDS011;8820;54.604;18.226;2024-03-06T12:49:58;9.82;;;8.20;;
17404;SDS011;8820;54.604;18.226;2024-03-06T12:52:26;12.13;;;7.90;;
17404;SDS011;8820;54.604;18.226;2024-03-06T12:54:54;14.45;;;8.68;;
17404;SDS011;8820;54.604;18.226;2024-03-06T12:57:23;11.00;;;8.20;;
17404;SDS011;8820;54.604;18.226;2024-03-06T12:59:52;12.88;;;8.20;;
17404;SDS011;8820;54.604;18.226;2024-03-06T13:02:20;9.68;;;8.05;;
17404;SDS011;8820;54.604;18.226;2024-03-06T13:04:49;14.10;;;8.57;;
17404;SDS011;8820;54.604;18.226;2024-03-06T13:07:17;10.70;;;8.40;;
17404;SDS011;8820;54.604;18.226;2024-03-06T13:09:45;10.55;;;8.95;;
17404;SDS011;8820;54.604;18.226;2024-03-06T13:12:13;11.70;;;8.43;;
17404;SDS011;8820;54.604;18.226;2024-03-06T13:14:41;13.88;;;8.10;;
17404;SDS011;8820;54.604;18.226;2024-03-06T13:17:11;9.73;;;8.18;;
17404;SDS011;8820;54.604;18.226;2024-03-06T13:19:39;10.93;;;8.15;;
17404;SDS011;8820;54.604;18.226;2024-03-06T13:22:07;12.77;;;8.68;;
17404;SDS011;8820;54.604;18.226;2024-03-06T13:24:36;17.00;;;12.25;;
17404;SDS011;8820;54.604;18.226;2024-03-06T13:27:07;16.27;;;10.07;;
17404;SDS011;8820;54.604;18.226;2024-03-06T13:29:35;12.63;;;8.48;;
17404;SDS011;8820;54.604;18.226;2024-03-06T13:32:03;13.60;;;8.90;;
17404;SDS011;8820;54.604;18.226;2024-03-06T13:34:33;10.87;;;8.97;;
17404;SDS011;8820;54.604;18.226;2024-03-06T13:37:01;11.83;;;8.80;;
17404;SDS011;8820;54.604;18.226;2024-03-06T13:39:30;12.80;;;9.43;;
17404;SDS011;8820;54.604;18.226;2024-03-06T13:41:58;11.20;;;7.90;;
17404;SDS011;8820;54.604;18.226;2024-03-06T13:44:26;12.60;;;8.93;;
17404;SDS011;8820;54.604;18.226;2024-03-06T13:46:55;12.33;;;7.77;;
17404;SDS011;8820;54.604;18.226;2024-03-06T13:49:35;10.40;;;7.50;;
17404;SDS011;8820;54.604;18.226;2024-03-06T13:52:05;15.67;;;10.37;;
17404;SDS011;8820;54.604;18.226;2024-03-06T13:54:37;15.40;;;9.33;;
17404;SDS011;8820;54.604;18.226;2024-03-06T13:57:06;19.33;;;9.53;;
17404;SDS011;8820;54.604;18.226;2024-03-06T13:59:34;14.30;;;9.80;;
17404;SDS011;8820;54.604;18.226;2024-03-06T14:02:04;13.27;;;9.43;;
17404;SDS011;8820;54.604;18.226;2024-03-06T14:04:34;13.93;;;9.00;;
17404;SDS011;8820;54.604;18.226;2024-03-06T14:07:03;14.57;;;9.60;;
17404;SDS011;8820;54.604;18.226;2024-03-06T14:09:31;12.27;;;8.50;;
17404;SDS011;8820;54.604;18.226;2024-03-06T14:11:59;14.37;;;9.93;;
17404;SDS011;8820;54.604;18.226;2024-03-06T14:14:28;15.37;;;10.03;;
17404;SDS011;8820;54.604;18.226;2024-03-06T14:16:56;15.50;;;11.30;;
17404;SDS011;8820;54.604;18.226;2024-03-06T14:19:24;11.67;;;8.57;;
17404;SDS011;8820;54.604;18.226;2024-03-06T14:21:54;14.30;;;10.53;;
17404;SDS011;8820;54.604;18.226;2024-03-06T14:24:24;31.17;;;10.63;;
17404;SDS011;8820;54.604;18.226;2024-03-06T14:26:52;17.60;;;13.60;;
17404;SDS011;8820;54.604;18.226;2024-03-06T14:29:24;15.97;;;11.07;;
17404;SDS011;8820;54.604;18.226;2024-03-06T14:31:54;13.40;;;8.97;;
17404;SDS011;8820;54.604;18.226;2024-03-06T14:34:22;21.10;;;11.07;;
17404;SDS011;8820;54.604;18.226;2024-03-06T14:36:51;19.10;;;12.07;;
17404;SDS011;8820;54.604;18.226;2024-03-06T14:39:21;15.63;;;10.47;;
17404;SDS011;8820;54.604;18.226;2024-03-06T14:41:50;19.83;;;13.33;;
17404;SDS011;8820;54.604;18.226;2024-03-06T14:44:19;11.93;;;8.87;;